Time;durP1;ratioP1;P1;durP2;ratioP2;P2;SDS_P1;SDS_P2;PMS_P1;PMS_P2;Temp;Humidity;BMP_temperature;BMP_pressure;BME280_temperature;BME280_humidity;BME280_pressure;Samples;Min_cycle;Max_cycle;Signal;HPM_P1;HPM_P2
2023/03/19 00:01:03;;;;;;;0.98;0.93;;;;;;;4.73;63.44;99589.13;4486841;32;35306;-76
2023/03/19 00:03:32;;;;;;;2.00;1.17;;;;;;;4.36;64.09;99591.91;4485331;32;33563;-76
2023/03/19 00:06:01;;;;;;;0.88;0.88;;;;;;;3.84;65.30;99585.75;4486625;32;33568;-76
2023/03/19 00:08:29;;;;;;;0.60;0.60;;;;;;;3.48;67.06;99576.44;4486886;32;36105;-76
2023/03/19 00:10:58;;;;;;;0.60;0.60;;;;;;;3.52;67.05;99580.78;4472800;32;35323;-76
2023/03/19 00:13:26;;;;;;;0.80;0.80;;;;;;;3.93;66.36;99585.91;4486998;32;33521;-76
2023/03/19 00:15:55;;;;;;;3.42;1.50;;;;;;;4.24;65.98;99583.94;4486947;32;33872;-76
2023/03/19 00:18:24;;;;;;;1.05;1.05;;;;;;;3.15;67.88;99582.56;4486898;32;35083;-76
2023/03/19 00:20:52;;;;;;;0.80;0.80;;;;;;;3.71;67.18;99581.19;4486869;32;34472;-76
2023/03/19 00:23:20;;;;;;;0.90;0.90;;;;;;;3.87;66.85;99580.66;4472778;32;33907;-75
2023/03/19 00:25:48;;;;;;;1.67;1.58;;;;;;;3.23;68.64;99575.03;4486651;32;33923;-75
2023/03/19 00:28:17;;;;;;;0.68;0.62;;;;;;;2.94;69.04;99575.19;4486487;32;35284;-75
2023/03/19 00:30:45;;;;;;;2.67;2.47;;;;;;;3.13;67.97;99576.50;4486673;32;35334;-75
2023/03/19 00:33:14;;;;;;;3.15;1.40;;;;;;;3.12;69.53;99581.63;4486696;32;33653;-75
2023/03/19 00:35:42;;;;;;;0.65;0.65;;;;;;;3.50;68.65;99573.87;4486799;32;33896;-75
2023/03/19 00:38:10;;;;;;;0.60;0.60;;;;;;;3.53;68.96;99569.66;4486626;32;35092;-75
2023/03/19 00:40:39;;;;;;;1.15;1.05;;;;;;;3.12;70.28;99566.19;4472799;32;34715;-75
2023/03/19 00:43:07;;;;;;;0.60;0.60;;;;;;;2.95;69.24;99564.09;4486957;32;34287;-75
2023/03/19 00:45:35;;;;;;;0.85;0.85;;;;;;;3.32;69.26;99559.78;4472430;32;34603;-76
2023/03/19 00:48:04;;;;;;;0.50;0.50;;;;;;;3.35;69.31;99564.09;4486430;32;36146;-76
2023/03/19 00:50:32;;;;;;;0.90;0.90;;;;;;;3.58;68.25;99551.72;4472529;32;34428;-76
2023/03/19 00:53:00;;;;;;;1.90;1.25;;;;;;;4.03;66.64;99545.75;4486522;32;34205;-76
2023/03/19 00:55:29;;;;;;;0.80;0.80;;;;;;;4.35;65.33;99558.37;4486552;32;33922;-76
2023/03/19 00:57:57;;;;;;;0.60;0.60;;;;;;;4.27;65.41;99555.66;4486543;32;35047;-76
2023/03/19 01:00:26;;;;;;;1.02;1.02;;;;;;;4.15;66.06;99558.00;4486576;32;35375;-76
2023/03/19 01:02:54;;;;;;;2.03;1.92;;;;;;;4.31;65.86;99551.44;4472744;32;34180;-76
2023/03/19 01:05:23;;;;;;;1.35;1.35;;;;;;;4.06;65.62;99548.41;4472556;32;33939;-74
2023/03/19 01:07:51;;;;;;;0.60;0.60;;;;;;;4.41;64.63;99557.59;4459396;32;35270;-76
2023/03/19 01:10:22;;;;;;;1.25;1.25;;;;;;;4.33;65.38;99568.66;4472564;32;34332;-76
2023/03/19 01:12:50;;;;;;;0.60;0.60;;;;;;;4.11;65.67;99559.66;4472386;32;32673;-75
2023/03/19 01:15:19;;;;;;;0.65;0.65;;;;;;;4.45;64.81;99559.41;4486096;32;33764;-76
2023/03/19 01:17:47;;;;;;;0.85;0.85;;;;;;;3.95;65.96;99553.34;4486357;32;35176;-75
2023/03/19 01:20:17;;;;;;;0.60;0.60;;;;;;;3.76;66.53;99569.28;4486376;32;34784;-75
2023/03/19 01:22:46;;;;;;;0.73;0.73;;;;;;;3.67;66.82;99561.34;4486382;32;32739;-75
2023/03/19 01:25:14;;;;;;;0.60;0.60;;;;;;;3.09;66.58;99559.28;4472342;32;33962;-75
2023/03/19 01:27:43;;;;;;;0.65;0.65;;;;;;;2.81;68.68;99561.19;4486522;32;35123;-75
2023/03/19 01:30:14;;;;;;;1.70;1.60;;;;;;;2.91;68.73;99566.53;4459606;32;33842;-75
2023/03/19 01:32:45;;;;;;;1.85;1.75;;;;;;;2.43;69.46;99563.66;4486383;32;33458;-75
2023/03/19 01:35:13;;;;;;;3.80;3.53;;;;;;;2.41;70.12;99569.63;4459628;32;32502;-75
2023/03/19 01:37:41;;;;;;;1.87;1.77;;;;;;;2.61;70.96;99558.16;4486533;32;34919;-75
2023/03/19 01:40:13;;;;;;;0.82;0.82;;;;;;;2.14;71.88;99569.78;4472669;32;34610;-75
2023/03/19 01:43:12;;;;;;;0.70;0.70;;;;;;;2.42;70.32;99555.94;4472330;32;33318;-75
2023/03/19 01:45:42;;;;;;;1.98;1.85;;;;;;;1.82;73.67;99555.22;4486254;32;33792;-75
2023/03/19 01:48:40;;;;;;;1.05;1.05;;;;;;;2.01;72.50;99563.41;4472534;32;35914;-75
2023/03/19 01:51:11;;;;;;;1.20;1.17;;;;;;;2.05;71.51;99568.69;4486543;32;34521;-75
2023/03/19 01:53:42;;;;;;;0.77;0.77;;;;;;;1.88;71.22;99567.34;4472579;32;33320;-75
2023/03/19 01:56:15;;;;;;;0.60;0.60;;;;;;;1.67;72.93;99565.91;4472636;32;34953;-75
2023/03/19 01:58:45;;;;;;;0.70;0.70;;;;;;;1.19;74.39;99573.91;4472034;32;35870;-75
2023/03/19 02:01:14;;;;;;;0.60;0.60;;;;;;;0.45;76.73;99566.44;4471566;32;34775;-75
2023/03/19 02:03:44;;;;;;;1.25;1.25;;;;;;;0.64;77.76;99560.22;4486277;32;33393;-75
2023/03/19 02:06:16;;;;;;;4.20;1.52;;;;;;;1.06;77.08;99562.41;4472862;32;33921;-75
2023/03/19 02:08:45;;;;;;;1.23;1.23;;;;;;;0.91;76.17;99556.78;4472323;32;35005;-75
2023/03/19 02:11:14;;;;;;;1.00;1.00;;;;;;;1.61;75.92;99550.34;4472035;32;35171;-76
2023/03/19 02:13:42;;;;;;;0.95;0.95;;;;;;;0.94;76.56;99549.22;4471777;32;33076;-75
2023/03/19 02:16:11;;;;;;;1.90;1.80;;;;;;;0.72;76.16;99550.22;4472012;32;34058;-75
2023/03/19 02:18:40;;;;;;;1.17;1.17;;;;;;;0.68;79.11;99550.94;4472156;32;35057;-75
2023/03/19 02:21:12;;;;;;;0.98;0.98;;;;;;;0.73;78.28;99554.53;4485619;32;35215;-75
2023/03/19 02:23:46;;;;;;;1.33;1.33;;;;;;;0.47;80.01;99549.41;4472349;32;33510;-75
2023/03/19 02:26:23;;;;;;;0.85;0.85;;;;;;;1.17;78.41;99544.78;4486106;32;33863;-76
2023/03/19 02:28:52;;;;;;;0.95;0.95;;;;;;;1.39;77.41;99540.28;4471936;32;35140;-75
2023/03/19 02:31:22;;;;;;;0.60;0.60;;;;;;;1.64;76.35;99536.72;4486168;32;34580;-75
2023/03/19 02:34:05;;;;;;;2.85;2.72;;;;;;;1.92;75.66;99538.34;4471697;32;34224;-75
2023/03/19 02:36:43;;;;;;;0.90;0.90;;;;;;;2.23;75.59;99534.03;4471913;32;34308;-76
2023/03/19 02:39:20;;;;;;;0.80;0.80;;;;;;;2.46;73.84;99530.34;4459367;32;35872;-76
2023/03/19 02:41:51;;;;;;;0.90;0.90;;;;;;;2.28;73.48;99527.31;4471916;32;35241;-75
2023/03/19 02:44:19;;;;;;;1.50;1.40;;;;;;;2.78;71.89;99535.37;4471897;32;32760;-75
2023/03/19 02:46:48;;;;;;;0.70;0.70;;;;;;;2.73;71.93;99536.13;4472162;32;34657;-75
2023/03/19 02:49:17;;;;;;;1.52;1.48;;;;;;;2.91;71.29;99530.53;4472101;32;35061;-75
2023/03/19 02:51:45;;;;;;;0.85;0.85;;;;;;;2.91;70.46;99528.84;4485777;32;34570;-75
2023/03/19 02:54:14;;;;;;;1.00;1.00;;;;;;;2.16;72.23;99529.56;4470723;32;32794;-76
2023/03/19 02:56:42;;;;;;;0.85;0.85;;;;;;;2.69;71.13;99539.47;4471756;32;33912;-76
2023/03/19 02:59:11;;;;;;;1.42;1.33;;;;;;;2.44;71.26;99536.28;4485706;32;35317;-76
2023/03/19 03:01:39;;;;;;;0.60;0.60;;;;;;;2.90;71.58;99534.81;4471601;32;34391;-75
2023/03/19 03:04:08;;;;;;;0.60;0.60;;;;;;;2.69;71.25;99539.47;4471702;32;33800;-75
2023/03/19 03:06:36;;;;;;;0.82;0.82;;;;;;;1.93;72.47;99539.25;4471830;32;33959;-75
2023/03/19 03:09:05;;;;;;;0.60;0.60;;;;;;;1.98;73.17;99538.53;4485206;32;35174;-75
2023/03/19 03:11:34;;;;;;;0.60;0.60;;;;;;;1.66;75.18;99535.94;4471406;32;34440;-75
2023/03/19 03:14:02;;;;;;;0.90;0.90;;;;;;;2.08;73.65;99529.34;4485343;32;33466;-73
2023/03/19 03:16:31;;;;;;;0.60;0.60;;;;;;;2.63;72.31;99540.19;4482644;32;34734;-73
2023/03/19 03:19:01;;;;;;;0.73;0.73;;;;;;;2.60;71.78;99540.09;4470652;32;35115;-74
2023/03/19 03:21:30;;;;;;;0.60;0.60;;;;;;;1.89;71.86;99543.44;4484791;32;35325;-73
2023/03/19 03:24:00;;;;;;;0.88;0.88;;;;;;;1.96;71.85;99540.19;4484081;32;33139;-74
2023/03/19 03:26:29;;;;;;;1.08;1.08;;;;;;;1.82;74.53;99538.94;4484619;32;33879;-74
2023/03/19 03:28:57;;;;;;;0.68;0.68;;;;;;;1.99;74.53;99540.25;4482760;32;35900;-74
2023/03/19 03:31:26;;;;;;;1.00;1.00;;;;;;;2.57;72.41;99540.03;4481997;32;35263;-74
2023/03/19 03:33:55;;;;;;;1.42;1.33;;;;;;;2.75;71.25;99540.44;4484237;32;34263;-74
2023/03/19 03:36:23;;;;;;;1.35;1.35;;;;;;;2.39;72.37;99541.31;4482990;32;34539;-74
2023/03/19 03:38:52;;;;;;;2.75;1.80;;;;;;;2.59;71.92;99540.94;4481965;32;35150;-74
2023/03/19 03:41:20;;;;;;;1.33;1.25;;;;;;;2.56;71.05;99545.97;4482894;32;34731;-75
2023/03/19 03:43:49;;;;;;;0.60;0.60;;;;;;;2.58;71.27;99528.91;4484367;32;33449;-74
2023/03/19 03:46:18;;;;;;;0.60;0.60;;;;;;;2.75;71.85;99534.44;4485024;32;32865;-74
2023/03/19 03:48:50;;;;;;;0.60;0.60;;;;;;;3.21;70.79;99531.25;4484997;32;34465;-75
2023/03/19 03:51:19;;;;;;;1.25;0.82;;;;;;;3.09;69.85;99545.50;4483689;32;35242;-73
2023/03/19 03:53:50;;;;;;;1.17;1.17;;;;;;;2.99;68.89;99549.59;4484666;32;33248;-74
2023/03/19 03:56:19;;;;;;;0.90;0.90;;;;;;;2.80;69.95;99543.16;4483924;32;34594;-74
2023/03/19 03:58:47;;;;;;;0.60;0.60;;;;;;;2.38;71.02;99548.97;4484705;32;35075;-74
2023/03/19 04:01:16;;;;;;;0.90;0.90;;;;;;;1.98;72.17;99541.09;4483541;32;35351;-74
2023/03/19 04:03:46;;;;;;;0.70;0.70;;;;;;;1.79;72.57;99547.41;4470543;32;32795;-74
2023/03/19 04:06:16;;;;;;;1.00;1.00;;;;;;;1.93;72.78;99547.81;4484824;32;33991;-73
2023/03/19 04:08:48;;;;;;;0.77;0.77;;;;;;;2.13;71.92;99547.47;4470805;32;35080;-74
2023/03/19 04:11:17;;;;;;;0.82;0.82;;;;;;;1.80;72.79;99548.28;4484512;32;35224;-74
2023/03/19 04:13:46;;;;;;;0.75;0.75;;;;;;;1.44;73.63;99542.16;4482967;32;32778;-74
2023/03/19 04:16:15;;;;;;;0.90;0.90;;;;;;;1.82;73.27;99537.25;4484446;32;33797;-74
2023/03/19 04:18:43;;;;;;;0.60;0.60;;;;;;;1.76;72.72;99523.38;4482871;32;36051;-74
2023/03/19 04:21:12;;;;;;;0.70;0.70;;;;;;;1.98;72.57;99522.25;4483094;32;34689;-74
2023/03/19 04:23:40;;;;;;;1.23;1.23;;;;;;;2.01;73.09;99525.78;4484430;32;33551;-74
2023/03/19 04:26:09;;;;;;;0.88;0.88;;;;;;;1.99;72.76;99521.41;4485378;32;32506;-73
2023/03/19 04:28:37;;;;;;;0.62;0.62;;;;;;;2.21;71.62;99510.00;4485689;32;35015;-75
2023/03/19 04:31:08;;;;;;;0.70;0.70;;;;;;;1.99;72.22;99521.41;4485506;32;35171;-74
2023/03/19 04:33:37;;;;;;;1.35;1.27;;;;;;;2.21;71.91;99522.84;4485557;32;33584;-75
2023/03/19 04:36:06;;;;;;;0.60;0.60;;;;;;;1.99;73.12;99519.72;4486597;32;33905;-76
2023/03/19 04:38:35;;;;;;;0.70;0.70;;;;;;;2.34;72.53;99524.03;4484992;32;34664;-74
2023/03/19 04:41:04;;;;;;;0.60;0.60;;;;;;;2.41;71.82;99525.94;4485467;32;35116;-73
2023/03/19 04:43:33;;;;;;;0.60;0.60;;;;;;;2.03;72.48;99534.38;4486712;32;33643;-74
2023/03/19 04:46:02;;;;;;;0.90;0.90;;;;;;;2.05;71.43;99540.44;4486846;32;34719;-75
2023/03/19 04:48:32;;;;;;;0.60;0.60;;;;;;;1.60;71.61;99543.47;4486412;32;35098;-75
2023/03/19 04:51:07;;;;;;;0.90;0.90;;;;;;;0.46;75.89;99545.13;4472458;32;33821;-74
2023/03/19 04:53:36;;;;;;;0.80;0.80;;;;;;;0.79;76.17;99541.91;4485352;32;33507;-74
2023/03/19 04:56:06;;;;;;;0.90;0.90;;;;;;;0.75;75.33;99542.63;4472149;32;33132;-76
2023/03/19 04:58:35;;;;;;;0.70;0.70;;;;;;;0.53;75.50;99541.94;4486512;32;35043;-73
2023/03/19 05:01:04;;;;;;;0.70;0.70;;;;;;;0.38;77.75;99546.56;4486588;32;34554;-73
2023/03/19 05:03:35;;;;;;;0.70;0.70;;;;;;;0.85;76.45;99547.22;4485547;32;33515;-74
2023/03/19 05:06:03;;;;;;;6.15;5.75;;;;;;;0.84;75.81;99544.63;4485028;32;33984;-73
2023/03/19 05:08:32;;;;;;;0.70;0.70;;;;;;;0.63;75.35;99545.66;4485443;32;35717;-73
2023/03/19 05:11:01;;;;;;;2.15;1.15;;;;;;;-0.06;78.11;99543.34;4486207;32;34491;-73
2023/03/19 05:13:30;;;;;;;0.80;0.80;;;;;;;-0.17;79.74;99547.22;4486529;32;33555;-73
2023/03/19 05:16:00;;;;;;;0.70;0.70;;;;;;;0.10;79.73;99552.44;4484894;32;34577;-73
2023/03/19 05:18:29;;;;;;;0.75;0.75;;;;;;;0.59;77.89;99553.22;4485396;32;34315;-73
2023/03/19 05:20:58;;;;;;;0.90;0.90;;;;;;;0.20;79.42;99548.50;4486413;32;34334;-74
2023/03/19 05:23:27;;;;;;;2.28;1.95;;;;;;;0.21;80.14;99551.09;4486568;32;33528;-73
2023/03/19 05:25:59;;;;;;;0.70;0.70;;;;;;;0.61;79.98;99560.13;4486411;32;33863;-74
2023/03/19 05:28:31;;;;;;;0.70;0.70;;;;;;;1.22;79.11;99556.06;4479132;32;192673;-77
2023/03/19 05:31:03;;;;;;;0.70;0.70;;;;;;;1.91;77.81;99559.75;4484765;32;32945;-75
2023/03/19 05:33:33;;;;;;;1.75;1.70;;;;;;;2.74;72.69;99559.31;4485351;32;33508;-75
2023/03/19 05:36:01;;;;;;;1.12;1.12;;;;;;;3.84;66.84;99549.69;4485169;32;33857;-74
2023/03/19 05:38:31;;;;;;;0.60;0.60;;;;;;;4.50;63.40;99562.91;4485136;32;34926;-74
2023/03/19 05:41:04;;;;;;;3.10;2.78;;;;;;;5.91;60.14;99558.06;4484989;32;34660;-74
2023/03/19 05:43:34;;;;;;;0.60;0.60;;;;;;;8.16;55.22;99552.75;4486336;32;33282;-74
2023/03/19 05:46:04;;;;;;;0.65;0.65;;;;;;;8.43;51.66;99549.38;4486273;32;34596;-75
2023/03/19 05:48:32;;;;;;;0.88;0.88;;;;;;;9.81;48.80;99542.22;4486176;32;35117;-75
2023/03/19 05:51:01;;;;;;;13.05;1.65;;;;;;;10.79;46.41;99543.41;4486168;32;34468;-74
2023/03/19 05:53:30;;;;;;;1.25;1.15;;;;;;;10.57;45.25;99542.69;4486003;32;33466;-75
2023/03/19 05:56:00;;;;;;;2.67;1.25;;;;;;;10.94;44.20;99553.69;4484779;32;33893;-75
2023/03/19 05:58:29;;;;;;;0.50;0.50;;;;;;;13.34;39.84;99557.47;4484798;32;36016;-74
2023/03/19 06:00:58;;;;;;;1.15;1.10;;;;;;;14.28;38.24;99552.06;4485490;32;34232;-74
2023/03/19 06:03:26;;;;;;;0.50;0.50;;;;;;;14.97;36.66;99546.03;4471509;32;32406;-74
2023/03/19 06:05:56;;;;;;;1.58;1.40;;;;;;;14.51;36.73;99549.75;4485989;32;33890;-74
2023/03/19 06:08:25;;;;;;;0.65;0.65;;;;;;;13.43;39.47;99552.03;4471965;32;33364;-74
2023/03/19 06:10:54;;;;;;;0.90;0.90;;;;;;;13.18;38.90;99566.41;4484575;32;35183;-75
2023/03/19 06:13:23;;;;;;;0.90;0.90;;;;;;;12.12;40.47;99566.31;4485049;32;34168;-75
2023/03/19 06:15:52;;;;;;;1.40;1.30;;;;;;;12.32;40.48;99563.44;4485948;32;34810;-77
2023/03/19 06:18:21;;;;;;;1.58;1.48;;;;;;;11.02;44.62;99574.47;4485809;32;35143;-75
2023/03/19 06:20:50;;;;;;;1.02;0.95;;;;;;;11.67;43.23;99574.66;4484577;32;34361;-74
2023/03/19 06:23:18;;;;;;;0.47;0.47;;;;;;;10.80;42.58;99581.59;4484633;32;33637;-72
2023/03/19 06:25:47;;;;;;;3.00;1.62;;;;;;;9.56;45.30;99588.28;4471864;32;34133;-73
2023/03/19 06:28:16;;;;;;;2.85;2.37;;;;;;;10.03;44.59;99585.50;4484596;32;34662;-74
2023/03/19 06:30:44;;;;;;;1.62;1.52;;;;;;;11.00;43.31;99581.44;4485748;32;35164;-73
2023/03/19 06:33:15;;;;;;;3.05;1.25;;;;;;;11.95;40.40;99587.44;4484945;32;33213;-73
2023/03/19 06:35:43;;;;;;;0.37;0.37;;;;;;;11.78;40.29;99590.19;4485481;32;33984;-74
2023/03/19 06:38:12;;;;;;;0.40;0.40;;;;;;;10.83;42.25;99591.97;4485611;32;34923;-72
2023/03/19 06:40:43;;;;;;;0.98;0.98;;;;;;;10.52;44.74;99589.59;4477905;32;33028;-76
2023/03/19 06:43:12;;;;;;;1.70;1.27;;;;;;;10.81;42.43;99601.53;4470680;32;33393;-75
2023/03/19 06:45:40;;;;;;;1.35;0.68;;;;;;;10.41;42.57;99584.47;4469059;32;33367;-74
2023/03/19 06:48:09;;;;;;;1.15;1.05;;;;;;;10.77;43.11;99589.44;4470683;32;34743;-75
2023/03/19 06:50:37;;;;;;;0.40;0.40;;;;;;;11.54;41.34;99593.94;4467288;32;34624;-75
2023/03/19 06:53:06;;;;;;;0.50;0.50;;;;;;;11.49;41.87;99586.19;4483091;32;32109;-73
2023/03/19 06:55:36;;;;;;;0.60;0.60;;;;;;;9.94;44.01;99593.34;4470482;32;32349;-74
2023/03/19 06:58:05;;;;;;;0.80;0.80;;;;;;;10.83;44.00;99584.16;4482925;32;35200;-73
2023/03/19 07:00:34;;;;;;;0.37;0.37;;;;;;;10.60;43.06;99579.97;4470475;32;34418;-78
2023/03/19 07:03:03;;;;;;;0.80;0.80;;;;;;;10.79;43.43;99583.31;4483331;32;34176;-75
2023/03/19 07:05:31;;;;;;;0.62;0.62;;;;;;;10.28;43.32;99581.91;4484543;32;33976;-74
2023/03/19 07:08:00;;;;;;;0.50;0.50;;;;;;;9.98;44.27;99573.38;4472985;32;35479;-74
2023/03/19 07:10:29;;;;;;;0.55;0.55;;;;;;;10.25;44.20;99574.97;4469789;32;34486;-73
2023/03/19 07:12:57;;;;;;;2.00;1.37;;;;;;;10.11;44.12;99587.19;4470328;32;33609;-73
2023/03/19 07:15:25;;;;;;;0.90;0.90;;;;;;;9.39;45.66;99580.50;4484205;32;34004;-73
2023/03/19 07:17:54;;;;;;;0.50;0.50;;;;;;;9.19;47.04;99581.41;4484134;32;35046;-73
2023/03/19 07:20:22;;;;;;;1.37;1.30;;;;;;;9.28;45.78;99589.19;4444508;32;33299;-74
2023/03/19 07:22:51;;;;;;;1.05;1.05;;;;;;;9.11;46.40;99585.75;4484145;32;33890;-74
2023/03/19 07:25:19;;;;;;;0.40;0.40;;;;;;;9.47;46.41;99591.75;4484250;32;33848;-74
2023/03/19 07:27:48;;;;;;;0.47;0.47;;;;;;;10.55;44.26;99588.69;4454223;32;35063;-74
2023/03/19 07:30:16;;;;;;;0.80;0.80;;;;;;;10.61;43.25;99588.69;4463989;32;34707;-75
2023/03/19 07:32:45;;;;;;;0.98;0.85;;;;;;;10.54;43.61;99594.81;4470850;32;33806;-75
2023/03/19 07:35:14;;;;;;;0.50;0.50;;;;;;;10.18;44.15;99594.97;4482766;32;34085;-73
2023/03/19 07:37:42;;;;;;;0.50;0.50;;;;;;;10.42;43.25;99588.78;4483885;32;35854;-76
2023/03/19 07:40:11;;;;;;;1.27;1.17;;;;;;;11.50;42.19;99587.88;4484328;32;34143;-75
2023/03/19 07:42:40;;;;;;;0.40;0.40;;;;;;;10.89;42.86;99591.06;4466127;32;33754;-78
2023/03/19 07:45:12;;;;;;;0.70;0.70;;;;;;;11.32;42.07;99588.94;4483992;32;34736;-75
2023/03/19 07:47:40;;;;;;;1.98;1.58;;;;;;;11.52;41.43;99587.88;4483251;32;35467;-76
2023/03/19 07:50:09;;;;;;;1.05;1.05;;;;;;;11.88;40.09;99577.91;4483525;32;34565;-76
2023/03/19 07:52:38;;;;;;;0.70;0.70;;;;;;;12.18;39.62;99583.63;4456380;32;33076;-74
2023/03/19 07:55:06;;;;;;;1.35;1.25;;;;;;;11.84;39.97;99587.53;4483267;32;33933;-73
2023/03/19 07:57:34;;;;;;;0.93;0.93;;;;;;;11.86;40.18;99583.16;4469542;32;35451;-72
2023/03/19 08:00:04;;;;;;;1.92;1.75;;;;;;;11.82;40.18;99584.03;4485527;32;34444;-73
2023/03/19 08:02:41;;;;;;;0.70;0.70;;;;;;;11.33;40.19;99576.75;4471913;32;33547;-75
2023/03/19 08:05:10;;;;;;;0.60;0.60;;;;;;;11.43;41.75;99577.53;4470082;32;33885;-77
2023/03/19 08:07:38;;;;;;;0.98;0.85;;;;;;;12.20;38.86;99577.53;4458937;32;34755;-79
2023/03/19 08:10:07;;;;;;;0.40;0.40;;;;;;;11.95;39.02;99575.22;4484617;32;34328;-78
2023/03/19 08:12:39;;;;;;;0.65;0.65;;;;;;;11.13;40.25;99583.03;4471679;32;33436;-77
2023/03/19 08:15:10;;;;;;;0.30;0.30;;;;;;;11.48;40.08;99574.00;4485811;32;34611;-78
2023/03/19 08:17:39;;;;;;;0.95;0.95;;;;;;;11.45;40.13;99574.03;4484320;32;34868;-73
2023/03/19 08:20:10;;;;;;;0.30;0.30;;;;;;;12.27;39.25;99576.56;4471667;32;34738;-75
2023/03/19 08:22:39;;;;;;;1.23;1.12;;;;;;;12.16;38.26;99570.62;4459481;32;33631;-76
2023/03/19 08:25:09;;;;;;;1.85;1.70;;;;;;;12.68;37.63;99577.69;4458504;32;33445;-75
2023/03/19 08:27:37;;;;;;;0.70;0.70;;;;;;;12.93;37.09;99579.91;4455660;32;33512;-75
2023/03/19 08:30:07;;;;;;;0.40;0.40;;;;;;;13.00;36.43;99578.06;4468688;32;33858;-76
2023/03/19 08:32:35;;;;;;;0.60;0.60;;;;;;;13.07;36.93;99577.06;4469602;32;34240;-78
2023/03/19 08:35:05;;;;;;;2.28;1.55;;;;;;;13.39;37.04;99581.75;4468701;32;34302;-77
2023/03/19 08:37:33;;;;;;;0.50;0.50;;;;;;;13.18;36.14;99582.09;4469845;32;35871;-74
2023/03/19 08:40:03;;;;;;;0.77;0.77;;;;;;;12.39;37.41;99577.25;4469920;32;34455;-77
2023/03/19 08:42:31;;;;;;;0.30;0.30;;;;;;;13.04;36.77;99580.59;4453175;32;32982;-75
2023/03/19 08:44:59;;;;;;;2.55;0.77;;;;;;;13.26;36.83;99580.22;4454272;32;34760;-77
2023/03/19 08:47:28;;;;;;;0.30;0.30;;;;;;;13.05;36.21;99571.84;4466229;32;35142;-75
2023/03/19 08:49:56;;;;;;;0.90;0.77;;;;;;;13.18;35.77;99576.88;4453033;32;35233;-78
2023/03/19 08:52:24;;;;;;;7.12;1.08;;;;;;;14.00;35.06;99573.59;4454383;32;33640;-76
2023/03/19 08:54:53;;;;;;;0.60;0.60;;;;;;;13.36;36.31;99573.09;4453146;32;33962;-80
2023/03/19 08:57:22;;;;;;;0.40;0.40;;;;;;;14.27;35.33;99560.81;4454014;32;35880;-76
2023/03/19 08:59:51;;;;;;;0.60;0.60;;;;;;;14.93;33.13;99562.75;4467695;32;33629;-85
2023/03/19 09:02:20;;;;;;;1.00;0.93;;;;;;;15.28;32.63;99563.62;4469831;32;33538;-81
2023/03/19 09:04:48;;;;;;;1.80;1.08;;;;;;;14.75;33.27;99568.44;4443118;32;33266;-78
2023/03/19 09:07:17;;;;;;;0.50;0.50;;;;;;;14.98;32.45;99571.38;4468655;32;35024;-76
2023/03/19 09:09:45;;;;;;;0.47;0.47;;;;;;;14.65;32.75;99562.56;4455518;32;34353;-80
2023/03/19 09:12:15;;;;;;;0.80;0.77;;;;;;;15.03;33.70;99571.25;4468641;32;32846;-77
2023/03/19 09:14:44;;;;;;;2.15;1.90;;;;;;;14.96;32.51;99567.94;4470718;32;33203;-76
2023/03/19 09:17:14;;;;;;;1.35;1.33;;;;;;;14.92;32.84;99558.41;4469494;32;35718;-78
2023/03/19 09:19:42;;;;;;;0.40;0.40;;;;;;;15.51;31.94;99560.38;4469692;32;35244;-76
2023/03/19 09:22:10;;;;;;;0.22;0.22;;;;;;;15.49;31.86;99563.94;4470837;32;33588;-78
2023/03/19 09:24:39;;;;;;;0.57;0.57;;;;;;;15.95;31.18;99554.78;4470798;32;33825;-77
2023/03/19 09:27:07;;;;;;;0.93;0.93;;;;;;;16.54;30.33;99553.03;4475347;32;35098;-78
2023/03/19 09:29:35;;;;;;;1.00;0.50;;;;;;;16.53;30.08;99551.28;4486301;32;35154;-78
2023/03/19 09:32:05;;;;;;;0.40;0.40;;;;;;;16.42;30.46;99543.75;4472180;32;32579;-77
2023/03/19 09:34:33;;;;;;;1.08;0.98;;;;;;;16.56;29.92;99535.44;4486392;32;34724;-80
2023/03/19 09:37:01;;;;;;;1.33;1.20;;;;;;;16.72;29.52;99541.91;4486329;32;34982;-78
2023/03/19 09:39:31;;;;;;;0.68;0.68;;;;;;;16.66;30.26;99539.50;4486187;32;34130;-78
2023/03/19 09:42:40;;;;;;;0.80;0.60;;;;;;;17.13;29.78;99537.03;4486382;32;34336;-76
2023/03/19 09:45:17;;;;;;;0.43;0.43;;;;;;;16.96;29.91;99531.50;4472535;32;33910;-78
2023/03/19 09:47:46;;;;;;;;;;;;;;;16.40;29.83;99530.66;4472668;32;35925;-78
2023/03/19 09:50:17;;;;;;;0.73;0.68;;;;;;;16.87;29.38;99536.19;4472412;32;34289;-78
2023/03/19 09:52:48;;;;;;;1.00;1.00;;;;;;;17.06;28.79;99530.28;4486359;32;33508;-77
2023/03/19 09:55:25;;;;;;;0.70;0.70;;;;;;;17.99;28.16;99535.75;4486218;32;34663;-78
2023/03/19 09:57:55;;;;;;;0.65;0.65;;;;;;;18.56;26.82;99534.38;4486313;32;35137;-77
2023/03/19 10:00:30;;;;;;;0.40;0.40;;;;;;;19.39;25.84;99542.41;4486237;32;33600;-76
2023/03/19 10:03:11;;;;;;;2.15;0.90;;;;;;;19.77;25.05;99546.00;4472318;32;33977;-76
2023/03/19 10:06:11;;;;;;;0.80;0.80;;;;;;;19.83;24.94;99536.94;4486110;32;33970;-77
2023/03/19 10:09:04;;;;;;;0.68;0.68;;;;;;;19.35;26.59;99536.41;4443751;32;35970;-77
2023/03/19 10:11:51;;;;;;;0.75;0.75;;;;;;;19.91;25.58;99521.59;4486499;32;34530;-78
2023/03/19 10:14:42;;;;;;;1.65;1.27;;;;;;;18.83;25.83;99535.97;4486095;32;34317;-78
2023/03/19 10:17:15;;;;;;;0.50;0.50;;;;;;;19.02;26.01;99526.34;4486001;32;33928;-78
2023/03/19 10:19:46;;;;;;;0.35;0.35;;;;;;;19.40;26.08;99529.13;4459356;32;35149;-76
2023/03/19 10:22:21;;;;;;;1.65;0.93;;;;;;;20.12;25.04;99524.16;4471272;32;34401;-79
2023/03/19 10:24:51;;;;;;;0.82;0.82;;;;;;;21.36;24.11;99525.94;4472169;32;34327;-76
2023/03/19 10:27:21;;;;;;;0.52;0.52;;;;;;;20.22;24.05;99515.75;4456145;32;33255;-78
2023/03/19 10:29:51;;;;;;;0.82;0.82;;;;;;;20.89;23.37;99525.75;4469153;32;35056;-77
2023/03/19 10:32:43;;;;;;;1.33;1.00;;;;;;;20.33;23.68;99524.91;4470283;32;34329;-78
2023/03/19 10:35:19;;;;;;;1.25;1.15;;;;;;;21.16;23.29;99519.06;4469244;32;32915;-78
2023/03/19 10:37:50;;;;;;;0.85;0.85;;;;;;;21.28;24.28;99506.94;4469387;32;33786;-78
2023/03/19 10:40:32;;;;;;;1.00;0.95;;;;;;;22.79;21.57;99511.94;4470136;32;35051;-78
2023/03/19 10:43:15;;;;;;;0.70;0.70;;;;;;;22.20;21.61;99506.47;4469147;32;34550;-79
2023/03/19 10:45:45;;;;;;;1.27;0.47;;;;;;;22.50;21.83;99503.00;4470298;32;34265;-77
2023/03/19 10:48:18;;;;;;;0.45;0.45;;;;;;;22.24;22.49;99499.19;4470131;32;34050;-77
2023/03/19 10:50:52;;;;;;;2.95;1.05;;;;;;;22.92;21.08;99488.19;4470248;32;35080;-79
2023/03/19 10:53:33;;;;;;;0.52;0.52;;;;;;;21.89;22.14;99491.41;4469022;32;34373;-76
2023/03/19 10:56:06;;;;;;;0.28;0.28;;;;;;;23.47;21.88;99489.31;4468913;32;33460;-79
2023/03/19 10:58:36;;;;;;;1.92;1.35;;;;;;;24.14;19.71;99500.22;4470062;32;34752;-79
2023/03/19 11:01:10;;;;;;;0.93;0.93;;;;;;;23.62;20.30;99493.69;4469028;32;35180;-77
2023/03/19 11:03:49;;;;;;;0.50;0.50;;;;;;;24.51;19.86;99480.97;4468791;32;35082;-78
2023/03/19 11:06:32;;;;;;;2.37;0.47;;;;;;;25.16;19.02;99473.00;4469002;32;34265;-76
2023/03/19 11:09:07;;;;;;;1.10;1.00;;;;;;;23.24;20.75;99473.00;4466272;32;34061;-76
2023/03/19 11:11:41;;;;;;;0.55;0.55;;;;;;;23.53;20.33;99459.72;4468855;32;34741;-77
2023/03/19 11:14:21;;;;;;;0.93;0.80;;;;;;;25.07;18.83;99457.66;4469816;32;35079;-78
2023/03/19 11:17:06;;;;;;;1.33;1.23;;;;;;;24.81;19.25;99462.13;4468459;32;34218;-76
2023/03/19 11:19:43;;;;;;;1.00;0.75;;;;;;;24.16;20.09;99444.22;4441476;32;33659;-76
2023/03/19 11:22:16;;;;;;;0.98;0.98;;;;;;;23.70;20.07;99458.66;4467399;32;35541;-76
2023/03/19 11:25:17;;;;;;;1.23;1.12;;;;;;;23.26;20.93;99454.31;4468703;32;34546;-77
2023/03/19 11:28:01;;;;;;;3.03;1.52;;;;;;;23.45;20.83;99438.06;4464032;32;33618;-77
2023/03/19 11:30:37;;;;;;;1.37;0.55;;;;;;;23.27;20.62;99435.59;4454738;32;34114;-76
2023/03/19 11:33:24;;;;;;;0.73;0.73;;;;;;;24.14;19.68;99435.50;4468724;32;35062;-76
2023/03/19 11:36:02;;;;;;;0.20;0.20;;;;;;;25.47;18.75;99438.94;4469255;32;34428;-76
2023/03/19 11:39:05;;;;;;;1.27;1.17;;;;;;;25.45;18.51;99438.19;4470491;32;34236;-76
2023/03/19 11:41:42;;;;;;;0.98;0.98;;;;;;;25.36;18.72;99441.50;4470694;32;33986;-76
2023/03/19 11:44:41;;;;;;;0.60;0.60;;;;;;;24.33;19.62;99430.66;4470427;32;34910;-76
2023/03/19 11:47:21;;;;;;;1.35;1.17;;;;;;;23.53;20.12;99427.81;4456676;32;33892;-76
2023/03/19 11:50:17;;;;;;;1.27;1.20;;;;;;;24.13;20.20;99429.31;4469263;32;33184;-75
2023/03/19 11:53:03;;;;;;;0.65;0.65;;;;;;;22.36;21.43;99429.53;4469299;32;33521;-75
2023/03/19 11:55:38;;;;;;;2.03;1.15;;;;;;;22.19;22.51;99421.66;4468991;32;33555;-76
2023/03/19 11:58:21;;;;;;;0.60;0.60;;;;;;;22.61;21.22;99415.69;4469221;32;34295;-76